Hauptseite
METAR-TAF:

METAR-TAF

Flughäfen :

Flughafen Saarbrücken

Saarbrücken, Deutschland

Breite: 49-13N, Länge: 007-07E, Höhe: 322 m

Beobachtung

Neuester Wetterbericht von vor 30 Minuten, um 01:50 UTC
Windstille
Temperatur 10°C
Luftfeuchtigkeit 93%
Luftdruck 1030 hPa
Sichtweite 10 km oder mehr
keine Wolken unter 1500 m und keine Kumulonimbus oder Gewitterwolken

METAR: EDDR 130150Z AUTO 00000KT CAVOK 10/09 Q1030

Zeit: 04:20 (02:20 UTC)

Prognose

Neuester Wetterbericht von vor 3 Stunden und 20 Minuten, um 23:00 UTC
Gültige Prognose vom 13 um 00 UTC bis 13 um 24 UTC
Wind 3 kt aus unterschiedlichen Richtungen
Sichtweite 10 km oder mehr
keine Wolken unter 1500 m und keine Kumulonimbus oder Gewitterwolken
Übergehend zu
vom 13 um 09 UTC bis 13 um 11 UTC
Wind 7 kt aus Südwest

TAF: EDDR 122300Z 1300/1324 VRB03KT CAVOK BECMG 1309/1311 22007KT

Wetterbeobachtungen und Prognosen von mehr als 4000 Flughäfen (METAR und TAF Bericht).

Die verfügbaren Stationen werden durch gelbe und rote Markierungen auf der Karte dargestellt.

Führen Sie die Maus auf sie, um den Namen der Station zu sehen.

Darauf klicken, um die Beobachtung von Wetterbeobachtungen und Prognosen zu sehen.

Um die Karte zu ändern : klicken Sie auf den grünen Tasten mit einem schwarzen Kreuz Zum Vergrößern, auf den grünen Button mit einem Gedankenstrich zu verkleinern, oder auf die grünen Pfeile für benachbarte Karten.


METAR-TAF: